Hauptseite
METAR-TAF:

METAR-TAF

Flughäfen :

Flugplatz Oberpfaffenhofen

Oberpfaffenhofen, Deutschland

Breite: 48-05N, Länge: 011-17E, Höhe: 600 m

Beobachtung

Neuester Wetterbericht von vor 31 Minuten, um 22:50 UTC
Wind 9 kt aus Südost
Temperatur 2°C
Luftfeuchtigkeit 93%
Luftdruck 1004 hPa
Sichtweite 10 km oder mehr

METAR: EDMO 122250Z AUTO 14009KT 9999 // OVC025/// 02/01 Q1004

Zeit: 00:21 (23:21 UTC)

Prognose

Neuester Wetterbericht von vor 6 Stunden und 21 Minuten, um 17:00 UTC
Gültige Prognose vom 12 um 18 UTC bis 13 um 03 UTC
Wind 5 kt aus Südost
Sichtweite 10 km oder mehr
Durchbrochene Bewölkung in der Höhe von 5000 ft
Zeitweise
vom 12 um 22 UTC bis 13 um 03 UTC
Sichtweite: 2000 m
Geschlossene Wolkendecke in der Höhe von 800 ft
Schnee leicht, Regen

TAF: EDMO 121700Z 1218/1303 14005KT 9999 BKN050 TEMPO 1222/1303 2000 -SNRA OVC008

Wetterbeobachtungen und Prognosen von mehr als 4000 Flughäfen (METAR und TAF Bericht).

Die verfügbaren Stationen werden durch gelbe und rote Markierungen auf der Karte dargestellt.

Führen Sie die Maus auf sie, um den Namen der Station zu sehen.

Darauf klicken, um die Beobachtung von Wetterbeobachtungen und Prognosen zu sehen.

Um die Karte zu ändern : klicken Sie auf den grünen Tasten mit einem schwarzen Kreuz Zum Vergrößern, auf den grünen Button mit einem Gedankenstrich zu verkleinern, oder auf die grünen Pfeile für benachbarte Karten.


METAR-TAF: